sensor_id;sensor_type;location;lat;lon;timestamp;temperature;humidity
25342;DHT22;13298;48.792;9.154;2023-08-01T00:00:50;17.00;99.90
25342;DHT22;13298;48.792;9.154;2023-08-01T00:03:15;17.00;99.90
25342;DHT22;13298;48.792;9.154;2023-08-01T00:05:41;17.00;99.90
25342;DHT22;13298;48.792;9.154;2023-08-01T00:08:13;17.00;99.90
25342;DHT22;13298;48.792;9.154;2023-08-01T00:10:40;17.00;99.90
25342;DHT22;13298;48.792;9.154;2023-08-01T00:13:06;16.90;99.90
25342;DHT22;13298;48.792;9.154;2023-08-01T00:15:33;16.90;99.90
25342;DHT22;13298;48.792;9.154;2023-08-01T00:17:59;16.90;99.90
25342;DHT22;13298;48.792;9.154;2023-08-01T00:20:24;16.90;99.90
25342;DHT22;13298;48.792;9.154;2023-08-01T00:22:50;16.90;99.90
25342;DHT22;13298;48.792;9.154;2023-08-01T00:25:16;16.80;99.90
25342;DHT22;13298;48.792;9.154;2023-08-01T00:27:42;16.80;99.90
25342;DHT22;13298;48.792;9.154;2023-08-01T00:30:08;16.80;99.90
25342;DHT22;13298;48.792;9.154;2023-08-01T00:32:35;16.80;99.90
25342;DHT22;13298;48.792;9.154;2023-08-01T00:35:01;16.80;99.90
25342;DHT22;13298;48.792;9.154;2023-08-01T00:37:27;16.80;99.90
25342;DHT22;13298;48.792;9.154;2023-08-01T00:39:52;16.70;99.90
25342;DHT22;13298;48.792;9.154;2023-08-01T00:42:18;16.70;99.90
25342;DHT22;13298;48.792;9.154;2023-08-01T00:44:44;16.70;99.90
25342;DHT22;13298;48.792;9.154;2023-08-01T00:47:10;16.70;99.90
25342;DHT22;13298;48.792;9.154;2023-08-01T00:49:36;16.70;99.90
25342;DHT22;13298;48.792;9.154;2023-08-01T00:52:02;16.70;99.90
25342;DHT22;13298;48.792;9.154;2023-08-01T00:54:27;16.70;99.90
25342;DHT22;13298;48.792;9.154;2023-08-01T00:57:00;16.70;99.90
25342;DHT22;13298;48.792;9.154;2023-08-01T00:59:26;16.70;99.90
25342;DHT22;13298;48.792;9.154;2023-08-01T01:01:51;16.60;99.90
25342;DHT22;13298;48.792;9.154;2023-08-01T01:04:17;16.60;99.90
25342;DHT22;13298;48.792;9.154;2023-08-01T01:07:03;16.60;99.90
25342;DHT22;13298;48.792;9.154;2023-08-01T01:09:31;16.60;99.90
25342;DHT22;13298;48.792;9.154;2023-08-01T01:12:00;16.60;99.90
25342;DHT22;13298;48.792;9.154;2023-08-01T01:14:29;16.50;99.90
25342;DHT22;13298;48.792;9.154;2023-08-01T01:16:55;16.50;99.90
25342;DHT22;13298;48.792;9.154;2023-08-01T01:19:21;16.60;99.90
25342;DHT22;13298;48.792;9.154;2023-08-01T01:21:47;16.60;99.90
25342;DHT22;13298;48.792;9.154;2023-08-01T01:24:14;16.60;99.90
25342;DHT22;13298;48.792;9.154;2023-08-01T01:26:41;16.60;99.90
25342;DHT22;13298;48.792;9.154;2023-08-01T01:29:09;16.60;99.90
25342;DHT22;13298;48.792;9.154;2023-08-01T01:31:36;16.60;99.90
25342;DHT22;13298;48.792;9.154;2023-08-01T01:34:02;16.60;99.90
25342;DHT22;13298;48.792;9.154;2023-08-01T01:36:29;16.70;99.90
25342;DHT22;13298;48.792;9.154;2023-08-01T01:38:54;16.70;99.90
25342;DHT22;13298;48.792;9.154;2023-08-01T01:41:20;16.70;99.90
25342;DHT22;13298;48.792;9.154;2023-08-01T01:43:46;16.70;99.90
25342;DHT22;13298;48.792;9.154;2023-08-01T01:46:12;16.70;99.90
25342;DHT22;13298;48.792;9.154;2023-08-01T01:48:37;16.60;99.90
25342;DHT22;13298;48.792;9.154;2023-08-01T01:51:03;16.60;99.90
25342;DHT22;13298;48.792;9.154;2023-08-01T01:53:29;16.50;99.90
25342;DHT22;13298;48.792;9.154;2023-08-01T01:55:54;16.50;99.90
25342;DHT22;13298;48.792;9.154;2023-08-01T01:58:20;16.50;99.90
25342;DHT22;13298;48.792;9.154;2023-08-01T02:00:46;16.50;99.90
25342;DHT22;13298;48.792;9.154;2023-08-01T02:03:11;16.50;99.90
25342;DHT22;13298;48.792;9.154;2023-08-01T02:05:40;16.50;99.90
25342;DHT22;13298;48.792;9.154;2023-08-01T02:08:06;16.50;99.90
25342;DHT22;13298;48.792;9.154;2023-08-01T02:10:32;16.50;99.90
25342;DHT22;13298;48.792;9.154;2023-08-01T02:12:58;16.50;99.90
25342;DHT22;13298;48.792;9.154;2023-08-01T02:15:24;16.50;99.90
25342;DHT22;13298;48.792;9.154;2023-08-01T02:17:49;16.50;99.90
25342;DHT22;13298;48.792;9.154;2023-08-01T02:20:15;16.50;99.90
25342;DHT22;13298;48.792;9.154;2023-08-01T02:22:41;16.50;99.90
25342;DHT22;13298;48.792;9.154;2023-08-01T02:25:07;16.50;99.90
25342;DHT22;13298;48.792;9.154;2023-08-01T02:27:32;16.50;99.90
25342;DHT22;13298;48.792;9.154;2023-08-01T02:29:58;16.50;99.90
25342;DHT22;13298;48.792;9.154;2023-08-01T02:32:24;16.50;99.90
25342;DHT22;13298;48.792;9.154;2023-08-01T02:34:49;16.50;99.90
25342;DHT22;13298;48.792;9.154;2023-08-01T02:37:15;16.50;99.90
25342;DHT22;13298;48.792;9.154;2023-08-01T02:39:41;16.50;99.90
25342;DHT22;13298;48.792;9.154;2023-08-01T02:42:07;16.50;99.90
25342;DHT22;13298;48.792;9.154;2023-08-01T02:44:32;16.50;99.90
25342;DHT22;13298;48.792;9.154;2023-08-01T02:46:58;16.50;99.90
25342;DHT22;13298;48.792;9.154;2023-08-01T02:49:24;16.50;99.90
25342;DHT22;13298;48.792;9.154;2023-08-01T02:51:49;16.50;99.90
25342;DHT22;13298;48.792;9.154;2023-08-01T02:54:15;16.50;99.90
25342;DHT22;13298;48.792;9.154;2023-08-01T02:56:41;16.50;99.90
25342;DHT22;13298;48.792;9.154;2023-08-01T02:59:07;16.50;99.90
25342;DHT22;13298;48.792;9.154;2023-08-01T03:01:37;16.50;99.90
25342;DHT22;13298;48.792;9.154;2023-08-01T03:04:03;16.50;99.90
25342;DHT22;13298;48.792;9.154;2023-08-01T03:06:31;16.50;99.90
25342;DHT22;13298;48.792;9.154;2023-08-01T03:08:57;16.60;99.90
25342;DHT22;13298;48.792;9.154;2023-08-01T03:11:23;16.60;99.90
25342;DHT22;13298;48.792;9.154;2023-08-01T03:13:49;16.60;99.90
25342;DHT22;13298;48.792;9.154;2023-08-01T03:16:15;16.60;99.90
25342;DHT22;13298;48.792;9.154;2023-08-01T03:18:41;16.70;99.90
25342;DHT22;13298;48.792;9.154;2023-08-01T03:21:07;16.70;99.90
25342;DHT22;13298;48.792;9.154;2023-08-01T03:23:33;16.70;99.90
25342;DHT22;13298;48.792;9.154;2023-08-01T03:25:59;16.70;99.90
25342;DHT22;13298;48.792;9.154;2023-08-01T03:28:26;16.70;99.90
25342;DHT22;13298;48.792;9.154;2023-08-01T03:30:52;16.70;99.90
25342;DHT22;13298;48.792;9.154;2023-08-01T03:33:21;16.70;99.90
25342;DHT22;13298;48.792;9.154;2023-08-01T03:35:47;16.70;99.90
25342;DHT22;13298;48.792;9.154;2023-08-01T03:38:13;16.70;99.90
25342;DHT22;13298;48.792;9.154;2023-08-01T03:40:39;16.80;99.90
25342;DHT22;13298;48.792;9.154;2023-08-01T03:43:04;16.70;99.90
25342;DHT22;13298;48.792;9.154;2023-08-01T03:45:31;16.80;99.90
25342;DHT22;13298;48.792;9.154;2023-08-01T03:47:58;16.80;99.90
25342;DHT22;13298;48.792;9.154;2023-08-01T03:50:24;16.80;99.90
25342;DHT22;13298;48.792;9.154;2023-08-01T03:52:49;16.80;99.90
25342;DHT22;13298;48.792;9.154;2023-08-01T03:55:15;16.90;99.90
25342;DHT22;13298;48.792;9.154;2023-08-01T03:57:41;16.90;99.90
25342;DHT22;13298;48.792;9.154;2023-08-01T04:00:09;16.90;99.90
25342;DHT22;13298;48.792;9.154;2023-08-01T04:02:43;16.90;99.90
25342;DHT22;13298;48.792;9.154;2023-08-01T04:05:09;17.00;99.90
25342;DHT22;13298;48.792;9.154;2023-08-01T04:07:36;17.00;99.90
25342;DHT22;13298;48.792;9.154;2023-08-01T04:10:03;17.00;99.90
25342;DHT22;13298;48.792;9.154;2023-08-01T04:12:31;17.00;99.90
25342;DHT22;13298;48.792;9.154;2023-08-01T04:14:58;17.00;99.90
25342;DHT22;13298;48.792;9.154;2023-08-01T04:17:23;17.00;99.90
25342;DHT22;13298;48.792;9.154;2023-08-01T04:19:49;17.10;99.90
25342;DHT22;13298;48.792;9.154;2023-08-01T04:22:15;17.20;99.90
25342;DHT22;13298;48.792;9.154;2023-08-01T04:24:41;17.20;99.90
25342;DHT22;13298;48.792;9.154;2023-08-01T04:27:07;17.20;99.90
25342;DHT22;13298;48.792;9.154;2023-08-01T04:29:32;17.20;99.90
25342;DHT22;13298;48.792;9.154;2023-08-01T04:31:58;17.20;99.90
25342;DHT22;13298;48.792;9.154;2023-08-01T04:34:24;17.20;99.90
25342;DHT22;13298;48.792;9.154;2023-08-01T04:36:50;17.20;99.90
25342;DHT22;13298;48.792;9.154;2023-08-01T04:39:15;17.20;99.90
25342;DHT22;13298;48.792;9.154;2023-08-01T04:41:41;17.20;99.90
25342;DHT22;13298;48.792;9.154;2023-08-01T04:44:07;17.20;99.90
25342;DHT22;13298;48.792;9.154;2023-08-01T04:46:32;17.20;99.90
25342;DHT22;13298;48.792;9.154;2023-08-01T04:48:58;17.20;99.90
25342;DHT22;13298;48.792;9.154;2023-08-01T04:51:25;17.30;99.90
25342;DHT22;13298;48.792;9.154;2023-08-01T04:53:50;17.30;99.90
25342;DHT22;13298;48.792;9.154;2023-08-01T04:56:16;17.30;99.90
25342;DHT22;13298;48.792;9.154;2023-08-01T04:58:42;17.40;99.90
25342;DHT22;13298;48.792;9.154;2023-08-01T05:01:08;17.40;99.90
25342;DHT22;13298;48.792;9.154;2023-08-01T05:03:34;17.50;99.90
25342;DHT22;13298;48.792;9.154;2023-08-01T05:05:59;17.60;99.90
25342;DHT22;13298;48.792;9.154;2023-08-01T05:08:25;17.60;99.90
25342;DHT22;13298;48.792;9.154;2023-08-01T05:10:51;17.60;99.90
25342;DHT22;13298;48.792;9.154;2023-08-01T05:13:16;17.60;99.90
25342;DHT22;13298;48.792;9.154;2023-08-01T05:15:45;17.60;99.90
25342;DHT22;13298;48.792;9.154;2023-08-01T05:18:16;17.60;99.90
25342;DHT22;13298;48.792;9.154;2023-08-01T05:20:42;17.60;99.90
25342;DHT22;13298;48.792;9.154;2023-08-01T05:23:08;17.50;99.90
25342;DHT22;13298;48.792;9.154;2023-08-01T05:25:33;17.40;99.90
25342;DHT22;13298;48.792;9.154;2023-08-01T05:27:59;17.40;99.90
25342;DHT22;13298;48.792;9.154;2023-08-01T05:30:25;17.30;99.90
25342;DHT22;13298;48.792;9.154;2023-08-01T05:32:51;17.30;99.90
25342;DHT22;13298;48.792;9.154;2023-08-01T05:35:17;17.30;99.90
25342;DHT22;13298;48.792;9.154;2023-08-01T05:37:43;17.40;99.90
25342;DHT22;13298;48.792;9.154;2023-08-01T05:40:09;17.40;99.90
25342;DHT22;13298;48.792;9.154;2023-08-01T05:42:35;17.40;99.90
25342;DHT22;13298;48.792;9.154;2023-08-01T05:45:01;17.50;99.90
25342;DHT22;13298;48.792;9.154;2023-08-01T05:47:26;17.50;99.90
25342;DHT22;13298;48.792;9.154;2023-08-01T05:49:52;17.60;99.90
25342;DHT22;13298;48.792;9.154;2023-08-01T05:52:18;17.70;99.90
25342;DHT22;13298;48.792;9.154;2023-08-01T05:54:43;17.70;99.90
25342;DHT22;13298;48.792;9.154;2023-08-01T05:57:09;17.80;99.90
25342;DHT22;13298;48.792;9.154;2023-08-01T05:59:35;17.80;99.90
25342;DHT22;13298;48.792;9.154;2023-08-01T06:02:00;17.90;99.90
25342;DHT22;13298;48.792;9.154;2023-08-01T06:04:26;17.90;99.90
25342;DHT22;13298;48.792;9.154;2023-08-01T06:06:52;17.90;99.90
25342;DHT22;13298;48.792;9.154;2023-08-01T06:09:18;18.00;99.90
25342;DHT22;13298;48.792;9.154;2023-08-01T06:11:43;18.00;99.90
25342;DHT22;13298;48.792;9.154;2023-08-01T06:14:10;18.20;99.90
25342;DHT22;13298;48.792;9.154;2023-08-01T06:16:35;18.20;99.90
25342;DHT22;13298;48.792;9.154;2023-08-01T06:19:01;18.20;99.90
25342;DHT22;13298;48.792;9.154;2023-08-01T06:21:28;18.20;99.90
25342;DHT22;13298;48.792;9.154;2023-08-01T06:23:53;18.20;99.90
25342;DHT22;13298;48.792;9.154;2023-08-01T06:26:19;18.20;99.90
25342;DHT22;13298;48.792;9.154;2023-08-01T06:28:45;18.10;99.90
25342;DHT22;13298;48.792;9.154;2023-08-01T06:31:10;18.10;99.90
25342;DHT22;13298;48.792;9.154;2023-08-01T06:33:36;18.00;99.90
25342;DHT22;13298;48.792;9.154;2023-08-01T06:36:02;17.80;99.90
25342;DHT22;13298;48.792;9.154;2023-08-01T06:38:28;17.70;99.90
25342;DHT22;13298;48.792;9.154;2023-08-01T06:40:53;17.50;99.90
25342;DHT22;13298;48.792;9.154;2023-08-01T06:43:19;17.40;99.90
25342;DHT22;13298;48.792;9.154;2023-08-01T06:45:45;17.30;99.90
25342;DHT22;13298;48.792;9.154;2023-08-01T06:48:10;17.20;99.90
25342;DHT22;13298;48.792;9.154;2023-08-01T06:50:36;17.20;99.90
25342;DHT22;13298;48.792;9.154;2023-08-01T06:53:02;17.10;99.90
25342;DHT22;13298;48.792;9.154;2023-08-01T06:55:27;17.00;99.90
25342;DHT22;13298;48.792;9.154;2023-08-01T06:57:53;16.80;99.90
25342;DHT22;13298;48.792;9.154;2023-08-01T07:00:19;16.70;99.90
25342;DHT22;13298;48.792;9.154;2023-08-01T07:02:45;16.70;99.90
25342;DHT22;13298;48.792;9.154;2023-08-01T07:05:10;16.80;99.90
25342;DHT22;13298;48.792;9.154;2023-08-01T07:07:36;16.90;99.90
25342;DHT22;13298;48.792;9.154;2023-08-01T07:10:02;17.00;99.90
25342;DHT22;13298;48.792;9.154;2023-08-01T07:12:27;17.10;99.90
25342;DHT22;13298;48.792;9.154;2023-08-01T07:14:53;17.10;99.90
25342;DHT22;13298;48.792;9.154;2023-08-01T07:17:19;17.10;99.90
25342;DHT22;13298;48.792;9.154;2023-08-01T07:19:44;17.10;99.90
25342;DHT22;13298;48.792;9.154;2023-08-01T07:22:10;17.10;99.90
25342;DHT22;13298;48.792;9.154;2023-08-01T07:24:36;17.10;99.90
25342;DHT22;13298;48.792;9.154;2023-08-01T07:27:02;17.10;99.90
25342;DHT22;13298;48.792;9.154;2023-08-01T07:29:27;17.00;99.90
25342;DHT22;13298;48.792;9.154;2023-08-01T07:31:53;16.90;99.90
25342;DHT22;13298;48.792;9.154;2023-08-01T07:34:19;16.70;99.90
25342;DHT22;13298;48.792;9.154;2023-08-01T07:36:47;16.50;99.90
25342;DHT22;13298;48.792;9.154;2023-08-01T07:39:14;16.30;99.90
25342;DHT22;13298;48.792;9.154;2023-08-01T07:41:40;16.20;99.90
25342;DHT22;13298;48.792;9.154;2023-08-01T07:44:06;16.10;99.90
25342;DHT22;13298;48.792;9.154;2023-08-01T07:46:32;16.10;99.90
25342;DHT22;13298;48.792;9.154;2023-08-01T07:48:58;16.00;99.90
25342;DHT22;13298;48.792;9.154;2023-08-01T07:51:28;16.00;99.90
25342;DHT22;13298;48.792;9.154;2023-08-01T07:53:55;16.00;99.90
25342;DHT22;13298;48.792;9.154;2023-08-01T07:56:21;16.00;99.90
25342;DHT22;13298;48.792;9.154;2023-08-01T07:58:47;16.00;99.90
25342;DHT22;13298;48.792;9.154;2023-08-01T08:01:13;16.10;99.90
25342;DHT22;13298;48.792;9.154;2023-08-01T08:03:38;16.20;99.90
25342;DHT22;13298;48.792;9.154;2023-08-01T08:06:04;16.30;99.90
25342;DHT22;13298;48.792;9.154;2023-08-01T08:08:31;16.50;99.90
25342;DHT22;13298;48.792;9.154;2023-08-01T08:10:58;16.70;99.90
25342;DHT22;13298;48.792;9.154;2023-08-01T08:13:24;16.90;99.90
25342;DHT22;13298;48.792;9.154;2023-08-01T08:15:50;16.90;99.90
25342;DHT22;13298;48.792;9.154;2023-08-01T08:18:16;16.90;99.90
25342;DHT22;13298;48.792;9.154;2023-08-01T08:20:44;16.90;99.90
25342;DHT22;13298;48.792;9.154;2023-08-01T08:23:11;16.90;99.90
25342;DHT22;13298;48.792;9.154;2023-08-01T08:25:40;16.90;99.90
25342;DHT22;13298;48.792;9.154;2023-08-01T08:28:06;17.00;99.90
25342;DHT22;13298;48.792;9.154;2023-08-01T08:30:32;17.10;99.90
25342;DHT22;13298;48.792;9.154;2023-08-01T08:32:58;17.10;99.90
25342;DHT22;13298;48.792;9.154;2023-08-01T08:35:29;17.20;99.90
25342;DHT22;13298;48.792;9.154;2023-08-01T08:37:57;17.20;99.90
25342;DHT22;13298;48.792;9.154;2023-08-01T08:40:24;17.20;99.90
25342;DHT22;13298;48.792;9.154;2023-08-01T08:42:49;17.30;99.90
25342;DHT22;13298;48.792;9.154;2023-08-01T08:45:19;17.60;99.90
25342;DHT22;13298;48.792;9.154;2023-08-01T08:47:51;17.90;99.90
25342;DHT22;13298;48.792;9.154;2023-08-01T08:50:20;18.20;99.90
25342;DHT22;13298;48.792;9.154;2023-08-01T08:52:46;18.40;99.90
25342;DHT22;13298;48.792;9.154;2023-08-01T08:55:12;18.60;99.90
25342;DHT22;13298;48.792;9.154;2023-08-01T08:57:38;18.70;99.90
25342;DHT22;13298;48.792;9.154;2023-08-01T09:00:05;18.80;99.90
25342;DHT22;13298;48.792;9.154;2023-08-01T09:02:34;19.10;99.90
25342;DHT22;13298;48.792;9.154;2023-08-01T09:05:00;19.20;99.90
25342;DHT22;13298;48.792;9.154;2023-08-01T09:07:29;19.20;99.90
25342;DHT22;13298;48.792;9.154;2023-08-01T09:09:56;19.10;99.90
25342;DHT22;13298;48.792;9.154;2023-08-01T09:12:22;19.00;99.90
25342;DHT22;13298;48.792;9.154;2023-08-01T09:14:50;18.90;99.90
25342;DHT22;13298;48.792;9.154;2023-08-01T09:17:16;18.70;99.90
25342;DHT22;13298;48.792;9.154;2023-08-01T09:19:44;18.60;99.90
25342;DHT22;13298;48.792;9.154;2023-08-01T09:22:13;18.40;99.90
25342;DHT22;13298;48.792;9.154;2023-08-01T09:24:50;18.30;99.90
25342;DHT22;13298;48.792;9.154;2023-08-01T09:27:16;18.20;99.90
25342;DHT22;13298;48.792;9.154;2023-08-01T09:29:42;18.10;99.90
25342;DHT22;13298;48.792;9.154;2023-08-01T09:32:12;18.10;99.90
25342;DHT22;13298;48.792;9.154;2023-08-01T09:34:40;18.20;99.90
25342;DHT22;13298;48.792;9.154;2023-08-01T09:37:06;18.40;99.90
25342;DHT22;13298;48.792;9.154;2023-08-01T09:39:33;18.60;99.90
25342;DHT22;13298;48.792;9.154;2023-08-01T09:42:00;18.90;99.90
25342;DHT22;13298;48.792;9.154;2023-08-01T09:44:28;19.10;99.90
25342;DHT22;13298;48.792;9.154;2023-08-01T09:47:04;19.40;99.90
25342;DHT22;13298;48.792;9.154;2023-08-01T09:49:32;19.60;99.90
25342;DHT22;13298;48.792;9.154;2023-08-01T09:51:59;19.70;99.90
25342;DHT22;13298;48.792;9.154;2023-08-01T09:54:25;19.90;99.90
25342;DHT22;13298;48.792;9.154;2023-08-01T09:56:53;20.00;99.90
25342;DHT22;13298;48.792;9.154;2023-08-01T09:59:24;20.10;99.90
25342;DHT22;13298;48.792;9.154;2023-08-01T10:01:52;20.30;99.90
25342;DHT22;13298;48.792;9.154;2023-08-01T10:04:23;20.20;99.90
25342;DHT22;13298;48.792;9.154;2023-08-01T10:06:59;20.10;99.90
25342;DHT22;13298;48.792;9.154;2023-08-01T10:09:26;20.20;99.90
25342;DHT22;13298;48.792;9.154;2023-08-01T10:11:52;20.20;99.90
25342;DHT22;13298;48.792;9.154;2023-08-01T10:14:21;20.30;99.90
25342;DHT22;13298;48.792;9.154;2023-08-01T10:16:47;20.30;99.90
25342;DHT22;13298;48.792;9.154;2023-08-01T10:19:15;20.30;99.90
25342;DHT22;13298;48.792;9.154;2023-08-01T10:21:43;20.30;99.90
25342;DHT22;13298;48.792;9.154;2023-08-01T10:24:10;20.40;99.90
25342;DHT22;13298;48.792;9.154;2023-08-01T10:26:36;20.40;99.90
25342;DHT22;13298;48.792;9.154;2023-08-01T10:29:02;20.40;99.90
25342;DHT22;13298;48.792;9.154;2023-08-01T10:31:28;20.30;99.90
25342;DHT22;13298;48.792;9.154;2023-08-01T10:34:11;20.20;99.90
25342;DHT22;13298;48.792;9.154;2023-08-01T10:36:38;20.00;99.90
25342;DHT22;13298;48.792;9.154;2023-08-01T10:39:04;19.80;99.90
25342;DHT22;13298;48.792;9.154;2023-08-01T10:41:32;19.70;99.90
25342;DHT22;13298;48.792;9.154;2023-08-01T10:47:05;19.50;99.90
25342;DHT22;13298;48.792;9.154;2023-08-01T10:49:37;19.40;99.90
25342;DHT22;13298;48.792;9.154;2023-08-01T10:54:43;19.00;99.90
25342;DHT22;13298;48.792;9.154;2023-08-01T10:57:18;19.10;99.90
25342;DHT22;13298;48.792;9.154;2023-08-01T10:59:44;19.20;99.90
25342;DHT22;13298;48.792;9.154;2023-08-01T11:02:10;19.20;99.90
25342;DHT22;13298;48.792;9.154;2023-08-01T11:04:36;19.10;99.90
25342;DHT22;13298;48.792;9.154;2023-08-01T11:07:04;19.10;99.90
25342;DHT22;13298;48.792;9.154;2023-08-01T11:09:30;19.10;99.90
25342;DHT22;13298;48.792;9.154;2023-08-01T11:11:57;19.00;99.90
25342;DHT22;13298;48.792;9.154;2023-08-01T11:14:26;19.10;99.90
25342;DHT22;13298;48.792;9.154;2023-08-01T11:16:57;19.10;99.90
25342;DHT22;13298;48.792;9.154;2023-08-01T11:19:28;19.20;99.90
25342;DHT22;13298;48.792;9.154;2023-08-01T11:21:55;19.20;99.90
25342;DHT22;13298;48.792;9.154;2023-08-01T11:24:23;19.30;99.90
25342;DHT22;13298;48.792;9.154;2023-08-01T11:26:51;19.50;99.90
25342;DHT22;13298;48.792;9.154;2023-08-01T11:29:18;19.50;99.90
25342;DHT22;13298;48.792;9.154;2023-08-01T11:31:59;19.60;99.90
25342;DHT22;13298;48.792;9.154;2023-08-01T11:34:25;19.70;99.90
25342;DHT22;13298;48.792;9.154;2023-08-01T11:36:51;19.80;99.90
25342;DHT22;13298;48.792;9.154;2023-08-01T11:39:18;20.00;99.90
25342;DHT22;13298;48.792;9.154;2023-08-01T11:41:44;20.10;99.90
25342;DHT22;13298;48.792;9.154;2023-08-01T11:44:10;20.20;99.90
25342;DHT22;13298;48.792;9.154;2023-08-01T11:46:38;20.40;99.90
25342;DHT22;13298;48.792;9.154;2023-08-01T11:49:05;20.70;99.90
25342;DHT22;13298;48.792;9.154;2023-08-01T11:51:39;21.10;99.90
25342;DHT22;13298;48.792;9.154;2023-08-01T11:54:06;21.20;99.90
25342;DHT22;13298;48.792;9.154;2023-08-01T11:56:33;21.40;99.90
25342;DHT22;13298;48.792;9.154;2023-08-01T11:58:59;21.70;99.90
25342;DHT22;13298;48.792;9.154;2023-08-01T12:01:25;21.90;99.90
25342;DHT22;13298;48.792;9.154;2023-08-01T12:03:52;22.20;99.90
25342;DHT22;13298;48.792;9.154;2023-08-01T12:06:22;22.30;99.90
25342;DHT22;13298;48.792;9.154;2023-08-01T12:08:51;22.20;99.90
25342;DHT22;13298;48.792;9.154;2023-08-01T12:11:24;22.10;99.90
25342;DHT22;13298;48.792;9.154;2023-08-01T12:14:08;22.20;99.90
25342;DHT22;13298;48.792;9.154;2023-08-01T12:16:39;22.30;99.90
25342;DHT22;13298;48.792;9.154;2023-08-01T12:19:07;22.30;99.90
25342;DHT22;13298;48.792;9.154;2023-08-01T12:21:34;22.30;99.90
25342;DHT22;13298;48.792;9.154;2023-08-01T12:24:01;22.00;99.90
25342;DHT22;13298;48.792;9.154;2023-08-01T12:26:27;21.90;99.90
25342;DHT22;13298;48.792;9.154;2023-08-01T12:28:53;21.70;99.90
25342;DHT22;13298;48.792;9.154;2023-08-01T12:31:20;21.50;99.90
25342;DHT22;13298;48.792;9.154;2023-08-01T12:33:46;21.60;99.90
25342;DHT22;13298;48.792;9.154;2023-08-01T12:36:13;21.70;99.90
25342;DHT22;13298;48.792;9.154;2023-08-01T12:38:39;21.60;99.90
25342;DHT22;13298;48.792;9.154;2023-08-01T12:41:05;21.70;99.90
25342;DHT22;13298;48.792;9.154;2023-08-01T12:43:31;21.70;99.90
25342;DHT22;13298;48.792;9.154;2023-08-01T12:45:57;21.80;99.90
25342;DHT22;13298;48.792;9.154;2023-08-01T12:48:24;21.80;99.90
25342;DHT22;13298;48.792;9.154;2023-08-01T12:50:50;21.80;99.90
25342;DHT22;13298;48.792;9.154;2023-08-01T12:53:16;21.80;99.90
25342;DHT22;13298;48.792;9.154;2023-08-01T12:55:45;21.80;99.90
25342;DHT22;13298;48.792;9.154;2023-08-01T12:58:12;21.70;99.90
25342;DHT22;13298;48.792;9.154;2023-08-01T13:00:39;21.70;99.90
25342;DHT22;13298;48.792;9.154;2023-08-01T13:03:05;21.60;99.90
25342;DHT22;13298;48.792;9.154;2023-08-01T13:05:34;21.70;99.90
25342;DHT22;13298;48.792;9.154;2023-08-01T13:08:00;21.80;99.90
25342;DHT22;13298;48.792;9.154;2023-08-01T13:10:25;22.00;99.90
25342;DHT22;13298;48.792;9.154;2023-08-01T13:12:55;22.10;99.90
25342;DHT22;13298;48.792;9.154;2023-08-01T13:15:20;22.00;99.90
25342;DHT22;13298;48.792;9.154;2023-08-01T13:17:46;22.10;99.90
25342;DHT22;13298;48.792;9.154;2023-08-01T13:20:12;22.10;99.90
25342;DHT22;13298;48.792;9.154;2023-08-01T13:22:37;21.80;99.90
25342;DHT22;13298;48.792;9.154;2023-08-01T13:25:03;21.80;99.90
25342;DHT22;13298;48.792;9.154;2023-08-01T13:27:33;21.50;99.90
25342;DHT22;13298;48.792;9.154;2023-08-01T13:30:00;21.30;99.90
25342;DHT22;13298;48.792;9.154;2023-08-01T13:32:25;21.20;99.90
25342;DHT22;13298;48.792;9.154;2023-08-01T13:34:51;21.20;99.90
25342;DHT22;13298;48.792;9.154;2023-08-01T13:37:17;21.20;99.90
25342;DHT22;13298;48.792;9.154;2023-08-01T13:39:42;21.20;99.90
25342;DHT22;13298;48.792;9.154;2023-08-01T13:42:08;21.20;99.90
25342;DHT22;13298;48.792;9.154;2023-08-01T13:44:34;21.20;99.90
25342;DHT22;13298;48.792;9.154;2023-08-01T13:47:00;21.20;99.90
25342;DHT22;13298;48.792;9.154;2023-08-01T13:49:25;21.30;99.90
25342;DHT22;13298;48.792;9.154;2023-08-01T13:51:51;21.20;99.90
25342;DHT22;13298;48.792;9.154;2023-08-01T13:54:17;21.30;99.90
25342;DHT22;13298;48.792;9.154;2023-08-01T13:56:43;21.30;99.90
25342;DHT22;13298;48.792;9.154;2023-08-01T13:59:08;21.30;99.90
25342;DHT22;13298;48.792;9.154;2023-08-01T14:01:34;21.40;99.90
25342;DHT22;13298;48.792;9.154;2023-08-01T14:04:01;21.40;99.90
25342;DHT22;13298;48.792;9.154;2023-08-01T14:06:26;21.50;99.90
25342;DHT22;13298;48.792;9.154;2023-08-01T14:08:52;21.60;99.90
25342;DHT22;13298;48.792;9.154;2023-08-01T14:11:18;21.80;99.90
25342;DHT22;13298;48.792;9.154;2023-08-01T14:13:43;21.80;99.90
25342;DHT22;13298;48.792;9.154;2023-08-01T14:16:09;21.90;99.90
25342;DHT22;13298;48.792;9.154;2023-08-01T14:18:35;22.10;99.90
25342;DHT22;13298;48.792;9.154;2023-08-01T14:21:00;22.30;99.90
25342;DHT22;13298;48.792;9.154;2023-08-01T14:23:27;22.40;99.90
25342;DHT22;13298;48.792;9.154;2023-08-01T14:25:53;22.40;99.90
25342;DHT22;13298;48.792;9.154;2023-08-01T14:28:19;22.40;99.90
25342;DHT22;13298;48.792;9.154;2023-08-01T14:30:44;22.40;99.90
25342;DHT22;13298;48.792;9.154;2023-08-01T14:33:10;22.40;99.80
25342;DHT22;13298;48.792;9.154;2023-08-01T14:35:37;22.50;99.80
25342;DHT22;13298;48.792;9.154;2023-08-01T14:38:04;22.60;98.50
25342;DHT22;13298;48.792;9.154;2023-08-01T14:40:30;22.70;99.00
25342;DHT22;13298;48.792;9.154;2023-08-01T14:43:14;22.80;99.90
25342;DHT22;13298;48.792;9.154;2023-08-01T14:45:40;22.90;99.90
25342;DHT22;13298;48.792;9.154;2023-08-01T14:48:06;22.90;99.90
25342;DHT22;13298;48.792;9.154;2023-08-01T14:50:33;22.90;98.30
25342;DHT22;13298;48.792;9.154;2023-08-01T14:53:00;22.90;99.90
25342;DHT22;13298;48.792;9.154;2023-08-01T14:55:28;22.90;99.90
25342;DHT22;13298;48.792;9.154;2023-08-01T14:57:54;22.80;98.90
25342;DHT22;13298;48.792;9.154;2023-08-01T15:00:20;22.70;97.20
25342;DHT22;13298;48.792;9.154;2023-08-01T15:02:46;22.70;97.10
25342;DHT22;13298;48.792;9.154;2023-08-01T15:05:13;22.70;97.20
25342;DHT22;13298;48.792;9.154;2023-08-01T15:07:39;22.80;98.20
25342;DHT22;13298;48.792;9.154;2023-08-01T15:10:04;22.80;98.60
25342;DHT22;13298;48.792;9.154;2023-08-01T15:12:31;22.70;98.20
25342;DHT22;13298;48.792;9.154;2023-08-01T15:14:57;22.70;97.70
25342;DHT22;13298;48.792;9.154;2023-08-01T15:17:23;22.80;97.60
25342;DHT22;13298;48.792;9.154;2023-08-01T15:19:49;22.90;97.20
25342;DHT22;13298;48.792;9.154;2023-08-01T15:22:17;23.00;97.20
25342;DHT22;13298;48.792;9.154;2023-08-01T15:24:44;23.10;99.90
25342;DHT22;13298;48.792;9.154;2023-08-01T15:27:10;23.20;97.30
25342;DHT22;13298;48.792;9.154;2023-08-01T15:29:37;23.10;97.60
25342;DHT22;13298;48.792;9.154;2023-08-01T15:32:02;23.00;97.10